createdAt,value
2022-08-07T00:02:39.615Z,102835.44
2022-08-07T00:04:57.966Z,102837.59
2022-08-07T00:07:27.332Z,102835.03
2022-08-07T00:10:18.811Z,102835.91
2022-08-07T00:13:00.347Z,102825.25
2022-08-07T00:15:37.663Z,102829.81
2022-08-07T00:18:19.329Z,102830.59
2022-08-07T00:20:49.348Z,102823.53
2022-08-07T00:23:17.582Z,102824.47
2022-08-07T00:25:45.756Z,102827.22
2022-08-07T00:28:22.659Z,102824.66
2022-08-07T00:30:59.753Z,102828.31
2022-08-07T00:33:28.699Z,102825.81
2022-08-07T00:36:00.929Z,102811.16
2022-08-07T00:38:31.376Z,102823.47
2022-08-07T00:40:59.914Z,102830.00
2022-08-07T00:44:00.694Z,102820.31
2022-08-07T00:46:17.133Z,102820.53
2022-08-07T00:48:49.799Z,102826.19
2022-08-07T00:51:17.939Z,102830.13
2022-08-07T00:53:50.875Z,102816.16
2022-08-07T00:56:30.346Z,102822.53
2022-08-07T00:59:03.227Z,102819.94
2022-08-07T01:01:44.036Z,102819.34
2022-08-07T01:04:12.574Z,102815.16
2022-08-07T01:06:52.749Z,102812.78
2022-08-07T01:10:05.038Z,102817.59
2022-08-07T01:12:29.954Z,102816.16
2022-08-07T01:15:01.481Z,102801.19
2022-08-07T01:17:31.532Z,102803.97
2022-08-07T01:20:02.753Z,102808.63
2022-08-07T01:22:32.952Z,102803.47
2022-08-07T01:25:00.887Z,102805.56
2022-08-07T01:27:33.031Z,102786.38
2022-08-07T01:30:01.084Z,102803.22
2022-08-07T01:32:29.066Z,102803.22
2022-08-07T01:34:57.286Z,102804.13
2022-08-07T01:37:25.431Z,102805.13
2022-08-07T01:39:54.783Z,102808.06
2022-08-07T01:42:39.679Z,102809.19
2022-08-07T01:45:17.940Z,102800.47
2022-08-07T01:48:29.352Z,102799.69
2022-08-07T01:50:34.844Z,102806.03
2022-08-07T01:53:08.547Z,102797.16
2022-08-07T01:55:43.294Z,102785.56
2022-08-07T01:58:28.902Z,102783.19
2022-08-07T02:01:09.848Z,102793.16
2022-08-07T02:03:48.911Z,102792.41
2022-08-07T02:06:31.578Z,102788.09
2022-08-07T02:09:00.965Z,102796.22
2022-08-07T02:12:04.061Z,102799.97
2022-08-07T02:14:35.721Z,102795.66
2022-08-07T02:17:06.218Z,102794.88
2022-08-07T02:20:07.333Z,102796.81
2022-08-07T02:22:25.863Z,102775.78
2022-08-07T02:24:54.632Z,102781.09
2022-08-07T02:27:25.108Z,102789.22
2022-08-07T02:29:54.484Z,102793.88
2022-08-07T02:32:23.138Z,102777.16
2022-08-07T02:34:51.644Z,102787.84
2022-08-07T02:37:19.602Z,102790.59
2022-08-07T02:40:11.449Z,102791.56
2022-08-07T02:42:36.968Z,102790.66
2022-08-07T02:45:57.669Z,102788.06
2022-08-07T02:47:53.723Z,102782.09
2022-08-07T02:50:21.942Z,102783.81
2022-08-07T02:52:54.821Z,102788.28
2022-08-07T02:56:02.962Z,102778.63
2022-08-07T02:58:22.552Z,102791.19
2022-08-07T03:00:57.166Z,102787.72
2022-08-07T03:03:25.404Z,102795.84
2022-08-07T03:05:57.598Z,102794.06
2022-08-07T03:08:26.917Z,102788.75
2022-08-07T03:10:57.579Z,102786.97
2022-08-07T03:13:27.229Z,102786.16
2022-08-07T03:15:56.206Z,102781.78
2022-08-07T03:18:34.689Z,102775.72
2022-08-07T03:21:04.488Z,102776.66
2022-08-07T03:23:33.693Z,102778.59
2022-08-07T03:26:02.208Z,102777.91
2022-08-07T03:28:38.067Z,102778.91
2022-08-07T03:31:24.414Z,102776.34
2022-08-07T03:33:54.499Z,102780.09
2022-08-07T03:36:23.157Z,102765.03
2022-08-07T03:38:55.650Z,102767.78
2022-08-07T03:41:42.504Z,102766.97
2022-08-07T03:44:13.957Z,102770.66
2022-08-07T03:47:13.928Z,102779.66
2022-08-07T03:49:31.550Z,102768.19
2022-08-07T03:52:01.132Z,102771.75
2022-08-07T03:54:35.393Z,102765.50
2022-08-07T03:57:07.436Z,102765.59
2022-08-07T03:59:36.939Z,102766.53
2022-08-07T04:02:14.932Z,102764.91
2022-08-07T04:04:45.215Z,102764.03
2022-08-07T04:07:16.673Z,102758.75
2022-08-07T04:09:50.171Z,102764.09
2022-08-07T04:12:23.946Z,102762.38
2022-08-07T04:14:57.336Z,102714.19
2022-08-07T04:18:04.624Z,102766.84
2022-08-07T04:20:13.253Z,102760.69
2022-08-07T04:22:53.664Z,102751.13
2022-08-07T04:25:29.580Z,102764.59
2022-08-07T04:28:00.612Z,102752.38
2022-08-07T04:30:39.489Z,102757.75
2022-08-07T04:33:15.570Z,102756.28
2022-08-07T04:35:44.951Z,102760.81
2022-08-07T04:38:18.871Z,102760.88
2022-08-07T04:40:51.991Z,102758.22
2022-08-07T04:44:10.604Z,102759.19
2022-08-07T04:46:20.222Z,102759.31
2022-08-07T04:49:02.532Z,102756.56
2022-08-07T04:51:50.593Z,102764.66
2022-08-07T04:54:22.855Z,102767.38
2022-08-07T04:58:15.791Z,102764.69
2022-08-07T05:00:10.984Z,102771.81
2022-08-07T05:02:45.346Z,102774.41
2022-08-07T05:05:52.711Z,102766.41
2022-08-07T05:08:14.127Z,102773.59
2022-08-07T05:10:44.727Z,102755.25
2022-08-07T05:14:56.349Z,102758.84
2022-08-07T05:16:06.420Z,102787.19
2022-08-07T05:18:37.233Z,102770.38
2022-08-07T05:21:05.800Z,102765.91
2022-08-07T05:23:37.475Z,102768.53
2022-08-07T05:26:11.699Z,102775.66
2022-08-07T05:28:48.410Z,102767.75
2022-08-07T05:31:17.821Z,102776.53
2022-08-07T05:34:01.246Z,102784.50
2022-08-07T05:36:35.275Z,102782.59
2022-08-07T05:40:07.074Z,102788.75
2022-08-07T05:42:00.261Z,102783.28
2022-08-07T05:44:30.790Z,102785.06
2022-08-07T05:47:01.017Z,102783.00
2022-08-07T05:49:40.552Z,102777.44
2022-08-07T05:52:11.690Z,102787.06
2022-08-07T05:54:53.371Z,102794.88
2022-08-07T05:57:23.556Z,102782.13
2022-08-07T05:59:55.847Z,102782.84
2022-08-07T06:02:30.731Z,102782.63
2022-08-07T06:05:03.339Z,102790.31
2022-08-07T06:08:13.468Z,102795.34
2022-08-07T06:10:21.905Z,102789.59
2022-08-07T06:12:50.590Z,102793.63
2022-08-07T06:15:19.873Z,102771.94
2022-08-07T06:17:53.620Z,102785.53
2022-08-07T06:20:25.712Z,102787.81
2022-08-07T06:23:46.227Z,102782.06
2022-08-07T06:26:00.754Z,102783.50
2022-08-07T06:28:28.756Z,102791.34
2022-08-07T06:31:00.032Z,102782.25
2022-08-07T06:33:29.690Z,102778.59
2022-08-07T06:36:12.296Z,102785.47
2022-08-07T06:38:59.545Z,102778.88
2022-08-07T06:42:01.910Z,102774.13
2022-08-07T06:44:20.944Z,102775.69
2022-08-07T06:46:53.662Z,102779.91
2022-08-07T06:49:50.873Z,102755.91
2022-08-07T06:52:31.638Z,102779.31
2022-08-07T06:55:33.209Z,102784.31
2022-08-07T06:57:56.882Z,102778.69
2022-08-07T07:00:25.591Z,102779.16
2022-08-07T07:02:57.460Z,102787.91
2022-08-07T07:06:02.439Z,102778.56
2022-08-07T07:08:18.542Z,102780.06
2022-08-07T07:10:57.154Z,102789.56
2022-08-07T07:13:56.331Z,102788.50
2022-08-07T07:16:21.614Z,102790.00
2022-08-07T07:18:51.400Z,102775.59
2022-08-07T07:21:21.846Z,102788.41
2022-08-07T07:24:06.014Z,102781.78
2022-08-07T07:26:40.512Z,102789.38
2022-08-07T07:29:56.258Z,102794.41
2022-08-07T07:32:00.536Z,102783.53
2022-08-07T07:34:30.827Z,102787.81
2022-08-07T07:37:14.461Z,102798.16
2022-08-07T07:39:54.346Z,102800.50
2022-08-07T07:42:32.741Z,102801.09
2022-08-07T07:45:01.626Z,102787.72
2022-08-07T07:47:30.296Z,102810.47
2022-08-07T07:50:33.757Z,102803.06
2022-08-07T07:53:06.372Z,102797.44
2022-08-07T07:55:54.728Z,102812.09
2022-08-07T07:58:26.358Z,102808.09
2022-08-07T08:00:55.925Z,102804.03
2022-08-07T08:04:06.333Z,102808.97
2022-08-07T08:06:13.122Z,102803.13
2022-08-07T08:08:42.112Z,102794.66
2022-08-07T08:11:16.090Z,102788.94
2022-08-07T08:13:54.444Z,102808.84
2022-08-07T08:16:26.887Z,102806.56
2022-08-07T08:18:58.085Z,102798.03
2022-08-07T08:21:55.775Z,102791.28
2022-08-07T08:24:54.816Z,102793.66
2022-08-07T08:27:35.420Z,102794.22
2022-08-07T08:30:05.476Z,102790.16
2022-08-07T08:32:39.211Z,102796.13
2022-08-07T08:35:09.829Z,102796.47
2022-08-07T08:38:00.630Z,102796.00
2022-08-07T08:40:32.071Z,102798.31
2022-08-07T08:43:04.768Z,102787.97
2022-08-07T08:45:58.685Z,102780.50
2022-08-07T08:48:32.537Z,102784.31
2022-08-07T08:51:14.783Z,102778.41
2022-08-07T08:53:57.774Z,102773.28
2022-08-07T08:56:30.126Z,102767.63
2022-08-07T08:59:08.702Z,102768.00
2022-08-07T09:01:49.276Z,102773.06
2022-08-07T09:04:25.984Z,102764.31
2022-08-07T09:07:00.375Z,102749.88
2022-08-07T09:09:57.446Z,102763.22
2022-08-07T09:12:41.884Z,102760.09
2022-08-07T09:16:22.698Z,102748.47
2022-08-07T09:18:35.057Z,102756.84
2022-08-07T09:21:13.643Z,102763.75
2022-08-07T09:24:32.711Z,102759.63
2022-08-07T09:26:50.907Z,102765.81
2022-08-07T09:30:03.128Z,102760.81
2022-08-07T09:32:21.769Z,102711.53
2022-08-07T09:36:05.102Z,102757.03
2022-08-07T09:37:55.897Z,102753.09
2022-08-07T09:40:32.827Z,102763.44
2022-08-07T09:43:08.266Z,102756.91
2022-08-07T09:47:25.462Z,102762.63
2022-08-07T09:48:50.235Z,102767.38
2022-08-07T09:52:09.787Z,102758.09
2022-08-07T09:54:34.467Z,102758.91
2022-08-07T09:57:46.478Z,102744.69
2022-08-07T10:00:15.077Z,102740.69
2022-08-07T10:03:07.872Z,102753.59
2022-08-07T10:06:17.595Z,102761.22
2022-08-07T10:08:56.900Z,102726.06
2022-08-07T10:12:01.331Z,102740.59
2022-08-07T10:14:47.529Z,102747.38
2022-08-07T10:18:01.850Z,102748.94
2022-08-07T10:20:31.737Z,102753.78
2022-08-07T10:24:06.776Z,102748.25
2022-08-07T10:26:29.208Z,102745.63
2022-08-07T10:29:07.577Z,102733.38
2022-08-07T10:31:50.029Z,102740.03
2022-08-07T10:34:37.458Z,102739.22
2022-08-07T10:37:12.857Z,102733.22
2022-08-07T10:39:57.447Z,102728.56
2022-08-07T10:42:36.974Z,102733.34
2022-08-07T10:45:44.996Z,102733.50
2022-08-07T10:48:17.599Z,102733.75
2022-08-07T10:50:50.167Z,102719.94
2022-08-07T10:53:25.014Z,102728.66
2022-08-07T10:56:02.201Z,102730.09
2022-08-07T10:58:46.185Z,102718.63
2022-08-07T11:01:23.773Z,102720.88
2022-08-07T11:04:10.289Z,102712.50
2022-08-07T11:06:49.481Z,102718.34
2022-08-07T11:10:08.443Z,102715.97
2022-08-07T11:12:31.790Z,102713.56
2022-08-07T11:15:03.692Z,102712.03
2022-08-07T11:17:45.824Z,102704.91
2022-08-07T11:20:31.861Z,102700.97
2022-08-07T11:23:04.478Z,102705.09
2022-08-07T11:25:42.472Z,102702.66
2022-08-07T11:28:21.125Z,102694.19
2022-08-07T11:30:56.371Z,102692.03
2022-08-07T11:33:53.563Z,102687.94
2022-08-07T11:36:30.817Z,102699.28
2022-08-07T11:39:06.990Z,102688.56
2022-08-07T11:42:00.447Z,102690.56
2022-08-07T11:44:52.319Z,102691.56
2022-08-07T11:47:56.704Z,102679.53
2022-08-07T11:50:44.343Z,102704.53
2022-08-07T11:53:35.182Z,102687.94
2022-08-07T11:56:27.063Z,102676.41
2022-08-07T11:59:01.386Z,102684.25
2022-08-07T12:02:00.609Z,102688.31
2022-08-07T12:04:44.313Z,102692.22
2022-08-07T12:07:20.583Z,102694.09
2022-08-07T12:09:57.366Z,102685.84
2022-08-07T12:12:27.061Z,102684.69
2022-08-07T12:15:01.137Z,102690.75
2022-08-07T12:17:59.543Z,102692.25
2022-08-07T12:20:32.266Z,102690.81
2022-08-07T12:24:05.092Z,102686.94
2022-08-07T12:26:29.021Z,102686.63
2022-08-07T12:29:04.693Z,102670.44
2022-08-07T12:31:52.390Z,102671.59
2022-08-07T12:34:26.898Z,102683.44
2022-08-07T12:36:54.982Z,102685.31
2022-08-07T12:39:42.916Z,102677.25
2022-08-07T12:42:13.102Z,102681.16
2022-08-07T12:44:42.915Z,102684.84
2022-08-07T12:47:21.402Z,102668.25
2022-08-07T12:50:05.033Z,102677.00
2022-08-07T12:52:41.456Z,102668.03
2022-08-07T12:55:18.201Z,102677.09
2022-08-07T12:58:00.335Z,102668.53
2022-08-07T13:00:36.079Z,102672.16
2022-08-07T13:03:27.498Z,102672.81
2022-08-07T13:06:21.507Z,102671.34
2022-08-07T13:08:59.764Z,102667.47
2022-08-07T13:12:02.268Z,102661.44
2022-08-07T13:14:33.421Z,102649.28
2022-08-07T13:17:03.969Z,102651.25
2022-08-07T13:19:51.128Z,102652.88
2022-08-07T13:22:28.372Z,102655.16
2022-08-07T13:25:00.168Z,102648.59
2022-08-07T13:28:05.514Z,102650.31
2022-08-07T13:30:41.186Z,102649.44
2022-08-07T13:34:14.523Z,102645.31
2022-08-07T13:36:05.445Z,102647.78
2022-08-07T13:38:42.070Z,102648.78
2022-08-07T13:41:13.841Z,102645.94
2022-08-07T13:43:43.072Z,102649.38
2022-08-07T13:46:22.031Z,102658.94
2022-08-07T13:48:59.553Z,102633.94
2022-08-07T13:52:04.989Z,102643.94
2022-08-07T13:54:22.501Z,102648.72
2022-08-07T13:56:59.483Z,102650.97
2022-08-07T13:59:31.339Z,102652.81
2022-08-07T14:02:07.714Z,102612.94
2022-08-07T14:04:47.490Z,102648.59
2022-08-07T14:07:17.241Z,102641.78
2022-08-07T14:10:12.080Z,102641.53
2022-08-07T14:12:42.001Z,102641.22
2022-08-07T14:15:25.121Z,102629.06
2022-08-07T14:18:24.493Z,102641.16
2022-08-07T14:20:48.662Z,102645.84
2022-08-07T14:23:58.557Z,102635.41
2022-08-07T14:26:28.165Z,102635.78
2022-08-07T14:29:06.005Z,102636.56
2022-08-07T14:31:57.940Z,102635.78
2022-08-07T14:34:30.011Z,102642.81
2022-08-07T14:36:59.102Z,102619.25
2022-08-07T14:40:16.725Z,102622.88
2022-08-07T14:42:31.155Z,102616.03
2022-08-07T14:45:22.224Z,102603.81
2022-08-07T14:47:47.778Z,102612.22
2022-08-07T14:50:19.891Z,102610.22
2022-08-07T14:52:50.161Z,102602.53
2022-08-07T14:55:18.680Z,102608.78
2022-08-07T14:57:58.387Z,102610.41
2022-08-07T15:00:30.270Z,102609.63
2022-08-07T15:02:58.803Z,102598.41
2022-08-07T15:05:27.488Z,102600.13
2022-08-07T15:07:59.131Z,102599.22
2022-08-07T15:10:30.084Z,102597.38
2022-08-07T15:13:01.100Z,102604.59
2022-08-07T15:15:38.467Z,102599.59
2022-08-07T15:18:14.256Z,102582.69
2022-08-07T15:20:59.026Z,102592.41
2022-08-07T15:25:14.899Z,102590.66
2022-08-07T15:26:22.943Z,102587.59
2022-08-07T15:32:02.023Z,102578.41
2022-08-07T15:34:34.150Z,102579.63
2022-08-07T15:37:06.772Z,102586.13
2022-08-07T15:42:44.320Z,102578.75
2022-08-07T15:45:56.400Z,102577.78
2022-08-07T15:48:23.521Z,102577.13
2022-08-07T15:51:05.966Z,102576.53
2022-08-07T15:53:41.904Z,102582.66
2022-08-07T15:56:21.364Z,102543.50
2022-08-07T15:58:53.571Z,102569.78
2022-08-07T16:01:38.618Z,102564.03
2022-08-07T16:04:14.288Z,102568.72
2022-08-07T16:06:45.266Z,102561.75
2022-08-07T16:09:15.346Z,102560.09
2022-08-07T16:12:03.243Z,102564.97
2022-08-07T16:15:04.633Z,102573.38
2022-08-07T16:18:01.788Z,102559.81
2022-08-07T16:20:41.676Z,102568.41
2022-08-07T16:23:53.171Z,102574.06
2022-08-07T16:26:08.591Z,102568.13
2022-08-07T16:30:09.075Z,102568.25
2022-08-07T16:32:02.190Z,102553.72
2022-08-07T16:34:48.072Z,102551.06
2022-08-07T16:38:06.188Z,102564.50
2022-08-07T16:41:01.371Z,102558.50
2022-08-07T16:44:02.426Z,102557.25
2022-08-07T16:47:04.929Z,102534.03
2022-08-07T16:50:28.056Z,102557.03
2022-08-07T16:54:02.715Z,102540.75
2022-08-07T16:56:18.674Z,102547.72
2022-08-07T16:59:10.651Z,102546.31
2022-08-07T17:01:50.184Z,102542.25
2022-08-07T17:04:24.746Z,102540.78
2022-08-07T17:07:02.803Z,102542.59
2022-08-07T17:10:07.426Z,102513.91
2022-08-07T17:12:44.455Z,102538.66
2022-08-07T17:15:19.637Z,102534.06
2022-08-07T17:17:54.138Z,102535.28
2022-08-07T17:20:30.897Z,102534.06
2022-08-07T17:23:02.530Z,102530.44
2022-08-07T17:25:51.432Z,102521.41
2022-08-07T17:28:24.363Z,102522.25
2022-08-07T17:30:58.393Z,102524.81
2022-08-07T17:33:39.214Z,102522.53
2022-08-07T17:36:20.517Z,102528.00
2022-08-07T17:38:54.632Z,102517.59
2022-08-07T17:42:04.455Z,102508.34
2022-08-07T17:44:41.262Z,102519.16
2022-08-07T17:47:16.804Z,102511.41
2022-08-07T17:49:52.045Z,102516.22
2022-08-07T17:52:30.638Z,102497.06
2022-08-07T17:55:05.089Z,102523.69
2022-08-07T17:57:58.652Z,102531.81
2022-08-07T18:00:34.721Z,102522.72
2022-08-07T18:03:19.566Z,102530.19
2022-08-07T18:06:02.773Z,102520.66
2022-08-07T18:08:35.586Z,102523.97
2022-08-07T18:12:06.836Z,102527.09
2022-08-07T18:14:01.781Z,102517.06
2022-08-07T18:16:33.934Z,102525.81
2022-08-07T18:21:07.069Z,102516.53
2022-08-07T18:22:06.312Z,102503.75
2022-08-07T18:24:37.885Z,102517.16
2022-08-07T18:27:18.153Z,102520.84
2022-08-07T18:30:04.302Z,102518.72
2022-08-07T18:33:12.046Z,102521.50
2022-08-07T18:35:53.739Z,102527.75
2022-08-07T18:38:58.330Z,102537.38
2022-08-07T18:41:20.780Z,102538.00
2022-08-07T18:43:59.282Z,102533.19
2022-08-07T18:46:35.577Z,102536.00
2022-08-07T18:50:30.812Z,102536.09
2022-08-07T18:52:38.317Z,102545.72
2022-08-07T18:55:41.584Z,102545.97
2022-08-07T18:58:24.860Z,102542.94
2022-08-07T19:01:02.886Z,102542.22
2022-08-07T19:03:38.747Z,102528.75
2022-08-07T19:06:10.192Z,102550.91
2022-08-07T19:08:58.512Z,102543.50
2022-08-07T19:11:35.852Z,102542.00
2022-08-07T19:14:11.461Z,102554.38
2022-08-07T19:17:04.440Z,102551.09
2022-08-07T19:19:42.673Z,102546.13
2022-08-07T19:22:15.657Z,102546.31
2022-08-07T19:24:48.834Z,102552.06
2022-08-07T19:28:30.628Z,102549.69
2022-08-07T19:31:05.750Z,102557.31
2022-08-07T19:33:13.329Z,102547.19
2022-08-07T19:35:45.134Z,102561.03
2022-08-07T19:38:17.429Z,102565.06
2022-08-07T19:40:49.514Z,102554.94
2022-08-07T19:43:44.191Z,102560.78
2022-08-07T19:46:10.075Z,102570.53
2022-08-07T19:48:42.151Z,102568.44
2022-08-07T19:51:20.302Z,102569.38
2022-08-07T19:54:33.671Z,102565.44
2022-08-07T19:57:51.951Z,102573.06
2022-08-07T19:59:41.482Z,102572.03
2022-08-07T20:02:19.005Z,102576.88
2022-08-07T20:04:50.188Z,102579.34
2022-08-07T20:07:46.096Z,102572.59
2022-08-07T20:10:36.213Z,102580.44
2022-08-07T20:13:06.085Z,102581.00
2022-08-07T20:15:36.973Z,102573.19
2022-08-07T20:18:17.982Z,102578.81
2022-08-07T20:20:46.476Z,102575.41
2022-08-07T20:23:32.693Z,102580.06
2022-08-07T20:26:10.312Z,102583.03
2022-08-07T20:28:39.307Z,102583.31
2022-08-07T20:31:21.278Z,102590.59
2022-08-07T20:33:51.947Z,102587.28
2022-08-07T20:36:25.498Z,102587.47
2022-08-07T20:39:00.318Z,102590.41
2022-08-07T20:41:37.942Z,102586.31
2022-08-07T20:44:12.325Z,102586.59
2022-08-07T20:46:44.176Z,102584.19
2022-08-07T20:50:00.115Z,102582.81
2022-08-07T20:52:01.644Z,102581.25
2022-08-07T20:54:36.084Z,102585.97
2022-08-07T20:57:05.618Z,102587.91
2022-08-07T21:00:06.867Z,102590.81
2022-08-07T21:02:53.998Z,102577.75
2022-08-07T21:05:25.789Z,102590.50
2022-08-07T21:08:14.487Z,102599.50
2022-08-07T21:10:45.311Z,102583.78
2022-08-07T21:13:16.788Z,102592.59
2022-08-07T21:15:58.650Z,102592.94
2022-08-07T21:18:33.830Z,102587.22
2022-08-07T21:21:01.927Z,102595.53
2022-08-07T21:23:35.551Z,102581.56
2022-08-07T21:26:21.911Z,102595.78
2022-08-07T21:28:53.293Z,102590.47
2022-08-07T21:31:31.492Z,102593.25
2022-08-07T21:34:18.281Z,102586.94
2022-08-07T21:36:51.545Z,102596.34
2022-08-07T21:39:47.202Z,102603.66
2022-08-07T21:46:04.822Z,102596.66
2022-08-07T21:48:05.423Z,102599.56
2022-08-07T21:50:35.843Z,102597.03
2022-08-07T21:53:07.915Z,102597.22
2022-08-07T21:55:41.439Z,102594.78
2022-08-07T21:58:29.922Z,102593.22
2022-08-07T22:01:00.714Z,102586.41
2022-08-07T22:03:32.088Z,102583.28
2022-08-07T22:06:03.410Z,102593.94
2022-08-07T22:08:34.027Z,102590.44
2022-08-07T22:11:03.860Z,102597.59
2022-08-07T22:13:52.809Z,102587.91
2022-08-07T22:16:44.940Z,102599.59
2022-08-07T22:19:23.603Z,102594.53
2022-08-07T22:22:05.343Z,102599.22
2022-08-07T22:24:51.546Z,102599.47
2022-08-07T22:27:23.571Z,102591.88
2022-08-07T22:30:15.357Z,102596.50
2022-08-07T22:32:54.486Z,102598.75
2022-08-07T22:35:24.386Z,102599.03
2022-08-07T22:38:11.710Z,102593.00
2022-08-07T22:40:52.604Z,102588.19
2022-08-07T22:43:31.503Z,102597.06
2022-08-07T22:47:02.851Z,102592.72
2022-08-07T22:49:33.921Z,102605.28
2022-08-07T22:52:12.581Z,102610.81
2022-08-07T22:54:59.890Z,102607.25
2022-08-07T22:58:01.631Z,102601.94
2022-08-07T23:00:30.327Z,102600.38
2022-08-07T23:03:19.600Z,102609.16
2022-08-07T23:06:07.096Z,102609.16
2022-08-07T23:08:54.564Z,102619.09
2022-08-07T23:11:35.212Z,102621.19
2022-08-07T23:14:22.892Z,102619.75
2022-08-07T23:17:00.430Z,102610.31
2022-08-07T23:19:59.847Z,102611.97
2022-08-07T23:22:39.345Z,102615.84
2022-08-07T23:25:20.947Z,102625.78
2022-08-07T23:28:22.400Z,102623.25
2022-08-07T23:31:06.662Z,102629.69
2022-08-07T23:34:36.244Z,102642.44
2022-08-07T23:36:44.212Z,102631.84
2022-08-07T23:39:41.139Z,102640.16
2022-08-07T23:42:15.654Z,102645.72
2022-08-07T23:45:04.002Z,102642.47
2022-08-07T23:47:46.448Z,102640.88
2022-08-07T23:50:24.167Z,102644.50
2022-08-07T23:53:19.342Z,102622.78
2022-08-07T23:55:55.860Z,102642.94
2022-08-07T23:58:27.781Z,102642.13
